sensor_id;sensor_type;location;lat;lon;timestamp;temperature;humidity
4376;DHT22;2202;50.866;12.750;2022-11-30T00:01:57;4.90;91.40
4376;DHT22;2202;50.866;12.750;2022-11-30T00:04:24;4.90;91.50
4376;DHT22;2202;50.866;12.750;2022-11-30T00:06:51;4.90;91.60
4376;DHT22;2202;50.866;12.750;2022-11-30T00:09:21;4.90;91.60
4376;DHT22;2202;50.866;12.750;2022-11-30T00:11:48;4.80;91.60
4376;DHT22;2202;50.866;12.750;2022-11-30T00:14:16;4.80;91.70
4376;DHT22;2202;50.866;12.750;2022-11-30T00:16:43;4.80;91.70
4376;DHT22;2202;50.866;12.750;2022-11-30T00:19:10;4.80;91.70
4376;DHT22;2202;50.866;12.750;2022-11-30T00:21:37;4.80;91.70
4376;DHT22;2202;50.866;12.750;2022-11-30T00:24:04;4.80;91.60
4376;DHT22;2202;50.866;12.750;2022-11-30T00:26:31;4.70;91.60
4376;DHT22;2202;50.866;12.750;2022-11-30T00:28:58;4.60;91.70
4376;DHT22;2202;50.866;12.750;2022-11-30T00:31:26;4.60;91.80
4376;DHT22;2202;50.866;12.750;2022-11-30T00:33:53;4.60;91.80
4376;DHT22;2202;50.866;12.750;2022-11-30T00:36:20;4.60;91.80
4376;DHT22;2202;50.866;12.750;2022-11-30T00:38:48;4.60;91.70
4376;DHT22;2202;50.866;12.750;2022-11-30T00:41:16;4.60;91.70
4376;DHT22;2202;50.866;12.750;2022-11-30T00:43:43;4.60;91.80
4376;DHT22;2202;50.866;12.750;2022-11-30T00:46:10;4.50;91.70
4376;DHT22;2202;50.866;12.750;2022-11-30T00:48:39;4.50;91.70
4376;DHT22;2202;50.866;12.750;2022-11-30T00:51:08;4.50;91.80
4376;DHT22;2202;50.866;12.750;2022-11-30T00:53:35;4.50;91.70
4376;DHT22;2202;50.866;12.750;2022-11-30T00:56:02;4.50;91.90
4376;DHT22;2202;50.866;12.750;2022-11-30T00:58:29;4.50;92.00
4376;DHT22;2202;50.866;12.750;2022-11-30T01:00:56;4.60;92.00
4376;DHT22;2202;50.866;12.750;2022-11-30T01:03:23;4.50;91.90
4376;DHT22;2202;50.866;12.750;2022-11-30T01:05:51;4.50;91.90
4376;DHT22;2202;50.866;12.750;2022-11-30T01:08:18;4.50;91.90
4376;DHT22;2202;50.866;12.750;2022-11-30T01:10:44;4.60;91.90
4376;DHT22;2202;50.866;12.750;2022-11-30T01:13:14;4.50;91.80
4376;DHT22;2202;50.866;12.750;2022-11-30T01:15:42;4.50;91.90
4376;DHT22;2202;50.866;12.750;2022-11-30T01:18:10;4.50;91.80
4376;DHT22;2202;50.866;12.750;2022-11-30T01:20:39;4.50;91.80
4376;DHT22;2202;50.866;12.750;2022-11-30T01:23:08;4.60;91.80
4376;DHT22;2202;50.866;12.750;2022-11-30T01:25:35;4.60;91.80
4376;DHT22;2202;50.866;12.750;2022-11-30T01:28:02;4.60;91.50
4376;DHT22;2202;50.866;12.750;2022-11-30T01:30:29;4.50;91.40
4376;DHT22;2202;50.866;12.750;2022-11-30T01:33:01;4.40;91.60
4376;DHT22;2202;50.866;12.750;2022-11-30T01:35:27;4.40;91.80
4376;DHT22;2202;50.866;12.750;2022-11-30T01:37:54;4.40;91.60
4376;DHT22;2202;50.866;12.750;2022-11-30T01:40:22;4.40;91.80
4376;DHT22;2202;50.866;12.750;2022-11-30T01:42:49;4.40;91.80
4376;DHT22;2202;50.866;12.750;2022-11-30T01:45:16;4.40;91.80
4376;DHT22;2202;50.866;12.750;2022-11-30T01:47:46;4.40;91.80
4376;DHT22;2202;50.866;12.750;2022-11-30T01:50:16;4.40;92.00
4376;DHT22;2202;50.866;12.750;2022-11-30T01:52:47;4.40;91.80
4376;DHT22;2202;50.866;12.750;2022-11-30T01:55:18;4.40;92.00
4376;DHT22;2202;50.866;12.750;2022-11-30T01:57:49;4.40;91.70
4376;DHT22;2202;50.866;12.750;2022-11-30T02:00:17;4.40;91.80
4376;DHT22;2202;50.866;12.750;2022-11-30T02:02:50;4.40;92.00
4376;DHT22;2202;50.866;12.750;2022-11-30T02:05:19;4.50;92.00
4376;DHT22;2202;50.866;12.750;2022-11-30T02:07:46;4.40;91.60
4376;DHT22;2202;50.866;12.750;2022-11-30T02:10:15;4.40;91.80
4376;DHT22;2202;50.866;12.750;2022-11-30T02:12:58;4.50;91.80
4376;DHT22;2202;50.866;12.750;2022-11-30T02:15:32;4.50;91.70
4376;DHT22;2202;50.866;12.750;2022-11-30T02:18:05;4.50;91.70
4376;DHT22;2202;50.866;12.750;2022-11-30T02:20:49;4.50;91.70
4376;DHT22;2202;50.866;12.750;2022-11-30T02:23:38;4.50;91.70
4376;DHT22;2202;50.866;12.750;2022-11-30T02:26:19;4.50;91.70
4376;DHT22;2202;50.866;12.750;2022-11-30T02:29:09;4.50;91.50
4376;DHT22;2202;50.866;12.750;2022-11-30T02:31:42;4.50;91.40
4376;DHT22;2202;50.866;12.750;2022-11-30T02:34:11;4.50;91.30
4376;DHT22;2202;50.866;12.750;2022-11-30T02:36:40;4.50;91.50
4376;DHT22;2202;50.866;12.750;2022-11-30T02:39:09;4.50;91.40
4376;DHT22;2202;50.866;12.750;2022-11-30T02:41:37;4.50;91.40
4376;DHT22;2202;50.866;12.750;2022-11-30T02:44:08;4.40;91.50
4376;DHT22;2202;50.866;12.750;2022-11-30T02:46:45;4.40;91.60
4376;DHT22;2202;50.866;12.750;2022-11-30T02:49:18;4.40;91.70
4376;DHT22;2202;50.866;12.750;2022-11-30T02:51:49;4.30;91.60
4376;DHT22;2202;50.866;12.750;2022-11-30T02:54:17;4.30;91.70
4376;DHT22;2202;50.866;12.750;2022-11-30T02:56:44;4.20;92.00
4376;DHT22;2202;50.866;12.750;2022-11-30T02:59:12;4.20;92.10
4376;DHT22;2202;50.866;12.750;2022-11-30T03:01:39;4.20;92.10
4376;DHT22;2202;50.866;12.750;2022-11-30T03:04:07;4.20;92.10
4376;DHT22;2202;50.866;12.750;2022-11-30T03:06:33;4.20;92.20
4376;DHT22;2202;50.866;12.750;2022-11-30T03:09:00;4.20;92.20
4376;DHT22;2202;50.866;12.750;2022-11-30T03:11:27;4.20;92.10
4376;DHT22;2202;50.866;12.750;2022-11-30T03:13:54;4.20;92.30
4376;DHT22;2202;50.866;12.750;2022-11-30T03:16:22;4.20;92.40
4376;DHT22;2202;50.866;12.750;2022-11-30T03:18:49;4.20;92.20
4376;DHT22;2202;50.866;12.750;2022-11-30T03:21:16;4.30;92.30
4376;DHT22;2202;50.866;12.750;2022-11-30T03:23:43;4.30;92.20
4376;DHT22;2202;50.866;12.750;2022-11-30T03:26:09;4.30;92.20
4376;DHT22;2202;50.866;12.750;2022-11-30T03:28:36;4.40;92.10
4376;DHT22;2202;50.866;12.750;2022-11-30T03:31:04;4.40;92.10
4376;DHT22;2202;50.866;12.750;2022-11-30T03:33:32;4.50;92.00
4376;DHT22;2202;50.866;12.750;2022-11-30T03:36:00;4.40;91.80
4376;DHT22;2202;50.866;12.750;2022-11-30T03:38:27;4.40;91.70
4376;DHT22;2202;50.866;12.750;2022-11-30T03:40:59;4.40;91.70
4376;DHT22;2202;50.866;12.750;2022-11-30T03:43:26;4.40;91.50
4376;DHT22;2202;50.866;12.750;2022-11-30T03:45:53;4.50;91.60
4376;DHT22;2202;50.866;12.750;2022-11-30T03:48:20;4.40;91.60
4376;DHT22;2202;50.866;12.750;2022-11-30T03:50:49;4.40;91.60
4376;DHT22;2202;50.866;12.750;2022-11-30T03:53:16;4.40;91.80
4376;DHT22;2202;50.866;12.750;2022-11-30T03:55:43;4.50;91.80
4376;DHT22;2202;50.866;12.750;2022-11-30T03:58:10;4.40;91.60
4376;DHT22;2202;50.866;12.750;2022-11-30T04:00:37;4.40;91.50
4376;DHT22;2202;50.866;12.750;2022-11-30T04:03:04;4.40;91.70
4376;DHT22;2202;50.866;12.750;2022-11-30T04:05:31;4.30;91.70
4376;DHT22;2202;50.866;12.750;2022-11-30T04:07:59;4.30;92.00
4376;DHT22;2202;50.866;12.750;2022-11-30T04:10:26;4.30;91.80
4376;DHT22;2202;50.866;12.750;2022-11-30T04:12:53;4.40;91.80
4376;DHT22;2202;50.866;12.750;2022-11-30T04:15:19;4.40;91.60
4376;DHT22;2202;50.866;12.750;2022-11-30T04:17:46;4.40;91.50
4376;DHT22;2202;50.866;12.750;2022-11-30T04:20:13;4.40;91.60
4376;DHT22;2202;50.866;12.750;2022-11-30T04:22:40;4.40;91.60
4376;DHT22;2202;50.866;12.750;2022-11-30T04:25:08;4.40;91.50
4376;DHT22;2202;50.866;12.750;2022-11-30T04:27:35;4.40;91.40
4376;DHT22;2202;50.866;12.750;2022-11-30T04:30:03;4.40;91.50
4376;DHT22;2202;50.866;12.750;2022-11-30T04:32:30;4.30;91.40
4376;DHT22;2202;50.866;12.750;2022-11-30T04:34:57;4.20;91.50
4376;DHT22;2202;50.866;12.750;2022-11-30T04:37:24;4.20;91.80
4376;DHT22;2202;50.866;12.750;2022-11-30T04:39:51;4.30;91.70
4376;DHT22;2202;50.866;12.750;2022-11-30T04:42:25;4.30;91.60
4376;DHT22;2202;50.866;12.750;2022-11-30T04:44:52;4.20;91.60
4376;DHT22;2202;50.866;12.750;2022-11-30T04:47:19;4.20;91.70
4376;DHT22;2202;50.866;12.750;2022-11-30T04:49:45;4.20;91.50
4376;DHT22;2202;50.866;12.750;2022-11-30T04:52:12;4.30;91.40
4376;DHT22;2202;50.866;12.750;2022-11-30T04:54:39;4.30;91.30
4376;DHT22;2202;50.866;12.750;2022-11-30T04:57:06;4.30;91.30
4376;DHT22;2202;50.866;12.750;2022-11-30T04:59:34;4.30;91.40
4376;DHT22;2202;50.866;12.750;2022-11-30T05:02:01;4.30;91.40
4376;DHT22;2202;50.866;12.750;2022-11-30T05:04:28;4.30;91.50
4376;DHT22;2202;50.866;12.750;2022-11-30T05:06:55;4.30;91.50
4376;DHT22;2202;50.866;12.750;2022-11-30T05:09:21;4.30;91.40
4376;DHT22;2202;50.866;12.750;2022-11-30T05:11:48;4.30;91.40
4376;DHT22;2202;50.866;12.750;2022-11-30T05:14:15;4.30;91.50
4376;DHT22;2202;50.866;12.750;2022-11-30T05:16:46;4.30;91.50
4376;DHT22;2202;50.866;12.750;2022-11-30T05:19:12;4.30;91.50
4376;DHT22;2202;50.866;12.750;2022-11-30T05:21:43;4.30;91.50
4376;DHT22;2202;50.866;12.750;2022-11-30T05:24:10;4.30;91.60
4376;DHT22;2202;50.866;12.750;2022-11-30T05:26:37;4.30;91.60
4376;DHT22;2202;50.866;12.750;2022-11-30T05:29:04;4.30;91.60
4376;DHT22;2202;50.866;12.750;2022-11-30T05:31:32;4.20;91.80
4376;DHT22;2202;50.866;12.750;2022-11-30T05:34:00;4.20;91.90
4376;DHT22;2202;50.866;12.750;2022-11-30T05:36:27;4.20;91.90
4376;DHT22;2202;50.866;12.750;2022-11-30T05:38:53;4.20;91.90
4376;DHT22;2202;50.866;12.750;2022-11-30T05:41:20;4.20;91.80
4376;DHT22;2202;50.866;12.750;2022-11-30T05:43:47;4.20;91.80
4376;DHT22;2202;50.866;12.750;2022-11-30T05:46:14;4.20;91.80
4376;DHT22;2202;50.866;12.750;2022-11-30T05:48:41;4.20;91.80
4376;DHT22;2202;50.866;12.750;2022-11-30T05:51:11;4.20;91.70
4376;DHT22;2202;50.866;12.750;2022-11-30T05:53:40;4.10;91.70
4376;DHT22;2202;50.866;12.750;2022-11-30T05:56:10;4.00;91.90
4376;DHT22;2202;50.866;12.750;2022-11-30T05:58:37;3.90;91.80
4376;DHT22;2202;50.866;12.750;2022-11-30T06:01:05;3.80;92.30
4376;DHT22;2202;50.866;12.750;2022-11-30T06:03:33;3.80;92.50
4376;DHT22;2202;50.866;12.750;2022-11-30T06:06:00;3.80;92.60
4376;DHT22;2202;50.866;12.750;2022-11-30T06:08:29;3.80;92.60
4376;DHT22;2202;50.866;12.750;2022-11-30T06:10:59;3.80;92.60
4376;DHT22;2202;50.866;12.750;2022-11-30T06:13:26;3.80;92.40
4376;DHT22;2202;50.866;12.750;2022-11-30T06:15:52;3.80;92.40
4376;DHT22;2202;50.866;12.750;2022-11-30T06:18:19;3.80;92.60
4376;DHT22;2202;50.866;12.750;2022-11-30T06:20:46;3.80;92.60
4376;DHT22;2202;50.866;12.750;2022-11-30T06:23:13;3.80;92.70
4376;DHT22;2202;50.866;12.750;2022-11-30T06:25:41;3.80;92.70
4376;DHT22;2202;50.866;12.750;2022-11-30T06:28:08;3.80;92.70
4376;DHT22;2202;50.866;12.750;2022-11-30T06:30:35;3.70;92.90
4376;DHT22;2202;50.866;12.750;2022-11-30T06:33:02;3.70;93.00
4376;DHT22;2202;50.866;12.750;2022-11-30T06:35:29;3.70;93.00
4376;DHT22;2202;50.866;12.750;2022-11-30T06:37:56;3.80;93.00
4376;DHT22;2202;50.866;12.750;2022-11-30T06:40:25;3.80;93.00
4376;DHT22;2202;50.866;12.750;2022-11-30T06:42:53;3.80;92.90
4376;DHT22;2202;50.866;12.750;2022-11-30T06:45:20;3.90;92.90
4376;DHT22;2202;50.866;12.750;2022-11-30T06:47:47;3.90;92.80
4376;DHT22;2202;50.866;12.750;2022-11-30T06:50:14;3.90;92.80
4376;DHT22;2202;50.866;12.750;2022-11-30T06:52:40;3.90;92.60
4376;DHT22;2202;50.866;12.750;2022-11-30T06:55:07;3.90;92.80
4376;DHT22;2202;50.866;12.750;2022-11-30T06:57:34;3.90;92.70
4376;DHT22;2202;50.866;12.750;2022-11-30T07:00:03;3.90;92.70
4376;DHT22;2202;50.866;12.750;2022-11-30T07:02:30;3.90;92.70
4376;DHT22;2202;50.866;12.750;2022-11-30T07:04:57;3.90;92.70
4376;DHT22;2202;50.866;12.750;2022-11-30T07:07:24;3.90;92.60
4376;DHT22;2202;50.866;12.750;2022-11-30T07:09:51;3.90;92.40
4376;DHT22;2202;50.866;12.750;2022-11-30T07:12:17;3.80;92.40
4376;DHT22;2202;50.866;12.750;2022-11-30T07:14:44;3.90;92.60
4376;DHT22;2202;50.866;12.750;2022-11-30T07:17:12;4.00;92.40
4376;DHT22;2202;50.866;12.750;2022-11-30T07:19:39;4.00;92.20
4376;DHT22;2202;50.866;12.750;2022-11-30T07:22:06;4.00;92.10
4376;DHT22;2202;50.866;12.750;2022-11-30T07:24:33;3.90;91.80
4376;DHT22;2202;50.866;12.750;2022-11-30T07:27:17;3.90;92.00
4376;DHT22;2202;50.866;12.750;2022-11-30T07:29:44;3.80;91.80
4376;DHT22;2202;50.866;12.750;2022-11-30T07:32:14;3.70;92.20
4376;DHT22;2202;50.866;12.750;2022-11-30T07:34:41;3.80;92.40
4376;DHT22;2202;50.866;12.750;2022-11-30T07:37:08;3.90;92.20
4376;DHT22;2202;50.866;12.750;2022-11-30T07:39:35;3.90;91.80
4376;DHT22;2202;50.866;12.750;2022-11-30T07:42:02;3.90;91.80
4376;DHT22;2202;50.866;12.750;2022-11-30T07:44:29;3.90;92.00
4376;DHT22;2202;50.866;12.750;2022-11-30T07:46:57;3.90;91.90
4376;DHT22;2202;50.866;12.750;2022-11-30T07:49:26;4.00;91.90
4376;DHT22;2202;50.866;12.750;2022-11-30T07:51:53;4.00;91.70
4376;DHT22;2202;50.866;12.750;2022-11-30T07:54:20;4.00;91.50
4376;DHT22;2202;50.866;12.750;2022-11-30T07:56:47;4.10;91.50
4376;DHT22;2202;50.866;12.750;2022-11-30T07:59:14;4.20;91.00
4376;DHT22;2202;50.866;12.750;2022-11-30T08:01:41;4.60;91.20
4376;DHT22;2202;50.866;12.750;2022-11-30T08:04:07;5.10;90.60
4376;DHT22;2202;50.866;12.750;2022-11-30T08:06:39;5.70;88.00
4376;DHT22;2202;50.866;12.750;2022-11-30T08:09:06;6.30;83.00
4376;DHT22;2202;50.866;12.750;2022-11-30T08:11:34;6.60;80.00
4376;DHT22;2202;50.866;12.750;2022-11-30T08:14:02;6.70;77.20
4376;DHT22;2202;50.866;12.750;2022-11-30T08:16:33;6.40;76.80
4376;DHT22;2202;50.866;12.750;2022-11-30T08:19:00;6.00;77.80
4376;DHT22;2202;50.866;12.750;2022-11-30T08:21:26;5.60;80.00
4376;DHT22;2202;50.866;12.750;2022-11-30T08:23:55;5.30;82.00
4376;DHT22;2202;50.866;12.750;2022-11-30T08:26:24;5.20;83.00
4376;DHT22;2202;50.866;12.750;2022-11-30T08:28:51;5.00;83.40
4376;DHT22;2202;50.866;12.750;2022-11-30T08:31:20;4.70;84.20
4376;DHT22;2202;50.866;12.750;2022-11-30T08:33:48;4.60;85.80
4376;DHT22;2202;50.866;12.750;2022-11-30T08:36:18;4.50;86.40
4376;DHT22;2202;50.866;12.750;2022-11-30T08:38:46;4.20;87.20
4376;DHT22;2202;50.866;12.750;2022-11-30T08:41:17;4.20;88.40
4376;DHT22;2202;50.866;12.750;2022-11-30T08:43:44;4.30;88.60
4376;DHT22;2202;50.866;12.750;2022-11-30T08:46:13;4.20;88.00
4376;DHT22;2202;50.866;12.750;2022-11-30T08:48:40;4.10;88.80
4376;DHT22;2202;50.866;12.750;2022-11-30T08:51:09;4.00;89.00
4376;DHT22;2202;50.866;12.750;2022-11-30T08:53:37;4.00;90.00
4376;DHT22;2202;50.866;12.750;2022-11-30T08:56:06;4.00;90.00
4376;DHT22;2202;50.866;12.750;2022-11-30T08:58:37;4.00;90.20
4376;DHT22;2202;50.866;12.750;2022-11-30T09:01:07;4.10;89.60
4376;DHT22;2202;50.866;12.750;2022-11-30T09:03:35;4.10;89.40
4376;DHT22;2202;50.866;12.750;2022-11-30T09:06:04;4.10;89.20
4376;DHT22;2202;50.866;12.750;2022-11-30T09:08:32;4.10;89.20
4376;DHT22;2202;50.866;12.750;2022-11-30T09:11:06;4.00;89.00
4376;DHT22;2202;50.866;12.750;2022-11-30T09:13:32;4.10;89.20
4376;DHT22;2202;50.866;12.750;2022-11-30T09:16:01;4.10;89.20
4376;DHT22;2202;50.866;12.750;2022-11-30T09:18:28;4.20;89.60
4376;DHT22;2202;50.866;12.750;2022-11-30T09:20:58;4.30;89.40
4376;DHT22;2202;50.866;12.750;2022-11-30T09:23:25;4.30;88.40
4376;DHT22;2202;50.866;12.750;2022-11-30T09:25:54;4.30;88.80
4376;DHT22;2202;50.866;12.750;2022-11-30T09:28:21;4.40;89.00
4376;DHT22;2202;50.866;12.750;2022-11-30T09:30:48;4.40;88.20
4376;DHT22;2202;50.866;12.750;2022-11-30T09:33:16;4.50;88.20
4376;DHT22;2202;50.866;12.750;2022-11-30T09:35:43;4.60;87.40
4376;DHT22;2202;50.866;12.750;2022-11-30T09:38:10;4.70;86.00
4376;DHT22;2202;50.866;12.750;2022-11-30T09:40:38;4.70;86.20
4376;DHT22;2202;50.866;12.750;2022-11-30T09:43:10;4.70;85.60
4376;DHT22;2202;50.866;12.750;2022-11-30T09:45:42;4.80;86.40
4376;DHT22;2202;50.866;12.750;2022-11-30T09:48:21;4.90;85.60
4376;DHT22;2202;50.866;12.750;2022-11-30T09:50:49;5.00;85.20
4376;DHT22;2202;50.866;12.750;2022-11-30T09:53:21;5.10;84.20
4376;DHT22;2202;50.866;12.750;2022-11-30T09:55:51;5.20;84.20
4376;DHT22;2202;50.866;12.750;2022-11-30T09:58:24;5.20;84.00
4376;DHT22;2202;50.866;12.750;2022-11-30T10:00:52;5.30;85.20
4376;DHT22;2202;50.866;12.750;2022-11-30T10:03:22;5.40;84.80
4376;DHT22;2202;50.866;12.750;2022-11-30T10:05:54;5.50;83.80
4376;DHT22;2202;50.866;12.750;2022-11-30T10:08:41;5.50;81.60
4376;DHT22;2202;50.866;12.750;2022-11-30T10:11:30;5.60;81.60
4376;DHT22;2202;50.866;12.750;2022-11-30T10:14:15;5.60;80.20
4376;DHT22;2202;50.866;12.750;2022-11-30T10:16:49;5.70;79.80
4376;DHT22;2202;50.866;12.750;2022-11-30T10:19:34;5.70;80.20
4376;DHT22;2202;50.866;12.750;2022-11-30T10:22:12;5.70;78.80
4376;DHT22;2202;50.866;12.750;2022-11-30T10:24:56;5.70;78.80
4376;DHT22;2202;50.866;12.750;2022-11-30T10:27:35;5.70;78.00
4376;DHT22;2202;50.866;12.750;2022-11-30T10:30:12;5.70;77.20
4376;DHT22;2202;50.866;12.750;2022-11-30T10:32:40;5.80;77.40
4376;DHT22;2202;50.866;12.750;2022-11-30T10:35:17;5.70;77.20
4376;DHT22;2202;50.866;12.750;2022-11-30T10:37:47;5.80;77.20
4376;DHT22;2202;50.866;12.750;2022-11-30T10:40:18;5.80;76.20
4376;DHT22;2202;50.866;12.750;2022-11-30T10:42:48;5.70;76.00
4376;DHT22;2202;50.866;12.750;2022-11-30T10:45:19;5.80;76.20
4376;DHT22;2202;50.866;12.750;2022-11-30T10:47:51;5.80;75.80
4376;DHT22;2202;50.866;12.750;2022-11-30T10:50:26;5.90;75.80
4376;DHT22;2202;50.866;12.750;2022-11-30T10:52:55;5.90;75.60
4376;DHT22;2202;50.866;12.750;2022-11-30T10:55:25;6.00;75.40
4376;DHT22;2202;50.866;12.750;2022-11-30T10:57:56;6.00;75.40
4376;DHT22;2202;50.866;12.750;2022-11-30T11:00:25;6.00;75.20
4376;DHT22;2202;50.866;12.750;2022-11-30T11:02:51;6.00;74.80
4376;DHT22;2202;50.866;12.750;2022-11-30T11:05:21;6.10;74.80
4376;DHT22;2202;50.866;12.750;2022-11-30T11:07:55;6.00;74.80
4376;DHT22;2202;50.866;12.750;2022-11-30T11:10:28;6.10;74.00
4376;DHT22;2202;50.866;12.750;2022-11-30T11:12:56;6.10;73.80
4376;DHT22;2202;50.866;12.750;2022-11-30T11:15:25;6.10;73.20
4376;DHT22;2202;50.866;12.750;2022-11-30T11:17:53;6.10;72.20
4376;DHT22;2202;50.866;12.750;2022-11-30T11:20:38;6.00;72.40
4376;DHT22;2202;50.866;12.750;2022-11-30T11:23:20;6.00;72.00
4376;DHT22;2202;50.866;12.750;2022-11-30T11:25:49;6.00;71.20
4376;DHT22;2202;50.866;12.750;2022-11-30T11:28:18;6.10;72.40
4376;DHT22;2202;50.866;12.750;2022-11-30T11:30:46;6.20;71.40
4376;DHT22;2202;50.866;12.750;2022-11-30T11:33:19;6.20;72.20
4376;DHT22;2202;50.866;12.750;2022-11-30T11:35:49;6.30;71.40
4376;DHT22;2202;50.866;12.750;2022-11-30T11:38:23;6.20;70.40
4376;DHT22;2202;50.866;12.750;2022-11-30T11:40:56;6.10;70.20
4376;DHT22;2202;50.866;12.750;2022-11-30T11:43:26;6.10;70.20
4376;DHT22;2202;50.866;12.750;2022-11-30T11:45:56;6.00;69.40
4376;DHT22;2202;50.866;12.750;2022-11-30T11:48:29;5.80;70.00
4376;DHT22;2202;50.866;12.750;2022-11-30T11:50:58;5.80;70.80
4376;DHT22;2202;50.866;12.750;2022-11-30T11:53:41;5.90;70.80
4376;DHT22;2202;50.866;12.750;2022-11-30T11:56:12;6.00;70.00
4376;DHT22;2202;50.866;12.750;2022-11-30T11:58:44;5.90;68.60
4376;DHT22;2202;50.866;12.750;2022-11-30T12:01:23;5.80;70.40
4376;DHT22;2202;50.866;12.750;2022-11-30T12:04:01;5.80;70.80
4376;DHT22;2202;50.866;12.750;2022-11-30T12:06:31;5.90;71.00
4376;DHT22;2202;50.866;12.750;2022-11-30T12:09:04;6.00;71.00
4376;DHT22;2202;50.866;12.750;2022-11-30T12:11:38;6.00;70.00
4376;DHT22;2202;50.866;12.750;2022-11-30T12:14:10;5.90;70.60
4376;DHT22;2202;50.866;12.750;2022-11-30T12:16:54;5.90;70.80
4376;DHT22;2202;50.866;12.750;2022-11-30T12:19:27;6.10;71.60
4376;DHT22;2202;50.866;12.750;2022-11-30T12:22:03;6.20;70.60
4376;DHT22;2202;50.866;12.750;2022-11-30T12:24:51;6.20;69.40
4376;DHT22;2202;50.866;12.750;2022-11-30T12:27:28;6.20;69.20
4376;DHT22;2202;50.866;12.750;2022-11-30T12:30:03;6.10;68.40
4376;DHT22;2202;50.866;12.750;2022-11-30T12:32:48;6.10;69.80
4376;DHT22;2202;50.866;12.750;2022-11-30T12:35:28;6.00;69.80
4376;DHT22;2202;50.866;12.750;2022-11-30T12:38:05;6.10;70.20
4376;DHT22;2202;50.866;12.750;2022-11-30T12:40:42;6.10;68.40
4376;DHT22;2202;50.866;12.750;2022-11-30T12:43:19;6.10;69.80
4376;DHT22;2202;50.866;12.750;2022-11-30T12:45:52;6.30;69.60
4376;DHT22;2202;50.866;12.750;2022-11-30T12:48:30;6.30;69.40
4376;DHT22;2202;50.866;12.750;2022-11-30T12:51:07;6.30;69.00
4376;DHT22;2202;50.866;12.750;2022-11-30T12:53:39;6.20;67.80
4376;DHT22;2202;50.866;12.750;2022-11-30T12:56:20;6.10;69.20
4376;DHT22;2202;50.866;12.750;2022-11-30T12:58:55;6.00;69.60
4376;DHT22;2202;50.866;12.750;2022-11-30T13:01:39;6.10;69.40
4376;DHT22;2202;50.866;12.750;2022-11-30T13:04:13;6.00;70.40
4376;DHT22;2202;50.866;12.750;2022-11-30T13:06:44;6.10;69.60
4376;DHT22;2202;50.866;12.750;2022-11-30T13:09:15;6.20;69.60
4376;DHT22;2202;50.866;12.750;2022-11-30T13:11:49;6.30;68.80
4376;DHT22;2202;50.866;12.750;2022-11-30T13:14:22;6.30;69.00
4376;DHT22;2202;50.866;12.750;2022-11-30T13:16:56;6.10;68.40
4376;DHT22;2202;50.866;12.750;2022-11-30T13:19:35;6.10;70.00
4376;DHT22;2202;50.866;12.750;2022-11-30T13:22:13;6.20;69.40
4376;DHT22;2202;50.866;12.750;2022-11-30T13:24:48;6.20;69.80
4376;DHT22;2202;50.866;12.750;2022-11-30T13:27:23;6.20;70.00
4376;DHT22;2202;50.866;12.750;2022-11-30T13:30:19;6.20;69.60
4376;DHT22;2202;50.866;12.750;2022-11-30T13:32:51;6.30;69.40
4376;DHT22;2202;50.866;12.750;2022-11-30T13:35:39;6.30;69.60
4376;DHT22;2202;50.866;12.750;2022-11-30T13:38:15;6.40;69.20
4376;DHT22;2202;50.866;12.750;2022-11-30T13:40:52;6.20;68.80
4376;DHT22;2202;50.866;12.750;2022-11-30T13:43:22;6.20;70.20
4376;DHT22;2202;50.866;12.750;2022-11-30T13:46:01;6.20;69.60
4376;DHT22;2202;50.866;12.750;2022-11-30T13:48:31;6.10;70.60
4376;DHT22;2202;50.866;12.750;2022-11-30T13:50:59;6.10;70.40
4376;DHT22;2202;50.866;12.750;2022-11-30T13:53:27;6.00;71.20
4376;DHT22;2202;50.866;12.750;2022-11-30T13:56:00;6.00;70.60
4376;DHT22;2202;50.866;12.750;2022-11-30T13:58:30;6.00;71.60
4376;DHT22;2202;50.866;12.750;2022-11-30T14:01:23;5.90;71.00
4376;DHT22;2202;50.866;12.750;2022-11-30T14:04:28;5.80;72.20
4376;DHT22;2202;50.866;12.750;2022-11-30T14:06:56;5.80;72.20
4376;DHT22;2202;50.866;12.750;2022-11-30T14:12:57;5.70;72.80
4376;DHT22;2202;50.866;12.750;2022-11-30T14:15:51;5.60;73.00
4376;DHT22;2202;50.866;12.750;2022-11-30T14:18:26;5.30;73.60
4376;DHT22;2202;50.866;12.750;2022-11-30T14:20:58;5.00;75.00
4376;DHT22;2202;50.866;12.750;2022-11-30T14:23:29;4.90;76.00
4376;DHT22;2202;50.866;12.750;2022-11-30T14:26:00;4.80;76.60
4376;DHT22;2202;50.866;12.750;2022-11-30T14:28:34;4.80;76.80
4376;DHT22;2202;50.866;12.750;2022-11-30T14:31:06;4.60;77.20
4376;DHT22;2202;50.866;12.750;2022-11-30T14:33:40;4.50;77.80
4376;DHT22;2202;50.866;12.750;2022-11-30T14:36:09;4.40;78.40
4376;DHT22;2202;50.866;12.750;2022-11-30T14:38:38;4.20;78.80
4376;DHT22;2202;50.866;12.750;2022-11-30T14:41:15;4.10;79.80
4376;DHT22;2202;50.866;12.750;2022-11-30T14:43:57;4.00;80.00
4376;DHT22;2202;50.866;12.750;2022-11-30T14:46:25;4.00;80.60
4376;DHT22;2202;50.866;12.750;2022-11-30T14:49:10;3.90;80.80
4376;DHT22;2202;50.866;12.750;2022-11-30T14:51:38;3.80;81.20
4376;DHT22;2202;50.866;12.750;2022-11-30T14:54:14;3.70;81.40
4376;DHT22;2202;50.866;12.750;2022-11-30T14:56:46;3.60;82.60
4376;DHT22;2202;50.866;12.750;2022-11-30T14:59:31;3.50;82.20
4376;DHT22;2202;50.866;12.750;2022-11-30T15:02:04;3.30;83.00
4376;DHT22;2202;50.866;12.750;2022-11-30T15:04:35;3.20;83.80
4376;DHT22;2202;50.866;12.750;2022-11-30T15:07:02;3.10;84.20
4376;DHT22;2202;50.866;12.750;2022-11-30T15:09:30;3.10;84.20
4376;DHT22;2202;50.866;12.750;2022-11-30T15:11:58;3.00;83.80
4376;DHT22;2202;50.866;12.750;2022-11-30T15:14:25;2.90;84.60
4376;DHT22;2202;50.866;12.750;2022-11-30T15:16:53;2.90;85.40
4376;DHT22;2202;50.866;12.750;2022-11-30T15:19:24;2.70;85.20
4376;DHT22;2202;50.866;12.750;2022-11-30T15:21:52;2.70;85.80
4376;DHT22;2202;50.866;12.750;2022-11-30T15:24:19;2.70;85.80
4376;DHT22;2202;50.866;12.750;2022-11-30T15:26:53;2.70;85.80
4376;DHT22;2202;50.866;12.750;2022-11-30T15:29:24;2.70;86.00
4376;DHT22;2202;50.866;12.750;2022-11-30T15:31:55;2.60;86.20
4376;DHT22;2202;50.866;12.750;2022-11-30T15:34:31;2.60;86.20
4376;DHT22;2202;50.866;12.750;2022-11-30T15:37:01;2.50;87.00
4376;DHT22;2202;50.866;12.750;2022-11-30T15:39:29;2.40;87.20
4376;DHT22;2202;50.866;12.750;2022-11-30T15:41:58;2.40;87.20
4376;DHT22;2202;50.866;12.750;2022-11-30T15:44:37;2.40;87.40
4376;DHT22;2202;50.866;12.750;2022-11-30T15:47:07;2.30;87.80
4376;DHT22;2202;50.866;12.750;2022-11-30T15:49:52;2.20;88.20
4376;DHT22;2202;50.866;12.750;2022-11-30T15:52:24;2.10;88.60
4376;DHT22;2202;50.866;12.750;2022-11-30T15:54:53;2.10;88.40
4376;DHT22;2202;50.866;12.750;2022-11-30T15:57:21;2.10;88.60
4376;DHT22;2202;50.866;12.750;2022-11-30T16:00:06;2.00;89.00
4376;DHT22;2202;50.866;12.750;2022-11-30T16:02:35;2.00;89.20
4376;DHT22;2202;50.866;12.750;2022-11-30T16:05:22;2.00;89.20
4376;DHT22;2202;50.866;12.750;2022-11-30T16:07:51;2.00;89.20
4376;DHT22;2202;50.866;12.750;2022-11-30T16:10:20;1.90;89.20
4376;DHT22;2202;50.866;12.750;2022-11-30T16:12:48;1.90;89.60
4376;DHT22;2202;50.866;12.750;2022-11-30T16:15:18;1.90;89.80
4376;DHT22;2202;50.866;12.750;2022-11-30T16:17:45;1.90;90.00
4376;DHT22;2202;50.866;12.750;2022-11-30T16:20:14;1.90;90.00
4376;DHT22;2202;50.866;12.750;2022-11-30T16:22:42;1.90;89.60
4376;DHT22;2202;50.866;12.750;2022-11-30T16:25:12;1.90;89.80
4376;DHT22;2202;50.866;12.750;2022-11-30T16:27:40;1.80;89.80